Time;durP1;ratioP1;P1;durP2;ratioP2;P2;SDS_P1;SDS_P2;PMS_P1;PMS_P2;Temp;Humidity;BMP_temperature;BMP_pressure;BME280_temperature;BME280_humidity;BME280_pressure;Samples;Min_cycle;Max_cycle;Signal;HPM_P1;HPM_P2
2022/02/23 00:00:07;;;;;;;;;;;;;;;5.84;75.25;99758.14;1751767;80;21899;-79
2022/02/23 00:02:32;;;;;;;;;;;;;;;5.71;75.60;99751.36;1762113;80;20206;-79
2022/02/23 00:04:58;;;;;;;;;;;;;;;5.73;75.58;99754.70;1758419;80;20141;-79
2022/02/23 00:07:23;;;;;;;;;;;;;;;5.73;75.60;99751.23;1760956;80;20139;-81
2022/02/23 00:09:49;;;;;;;;;;;;;;;5.72;75.70;99746.48;1755000;80;20199;-79
2022/02/23 00:12:15;;;;;;;;;;;;;;;5.58;76.14;99750.80;1757029;80;21151;-80
2022/02/23 00:14:41;;;;;;;;;;;;;;;5.52;76.51;99748.71;1751357;80;20212;-80
2022/02/23 00:17:07;;;;;;;;;;;;;;;5.50;76.46;99745.38;1751979;80;20151;-80
2022/02/23 00:19:32;;;;;;;;;;;;;;;5.39;76.97;99743.69;1745199;80;20155;-80
2022/02/23 00:21:58;;;;;;;;;;;;;;;5.53;76.52;99734.63;1749534;80;20444;-80
2022/02/23 00:24:23;;;;;;;;;;;;;;;5.51;76.48;99732.64;1752198;80;21163;-80
2022/02/23 00:26:49;;;;;;;;;;;;;;;5.53;76.51;99728.09;1753199;80;20463;-81
2022/02/23 00:29:14;;;;;;;;;;;;;;;5.47;76.72;99726.00;1750337;80;20131;-80
2022/02/23 00:31:41;;;;;;;;;;;;;;;5.42;76.88;99720.34;1747821;80;20140;-81
2022/02/23 00:34:06;;;;;;;;;;;;;;;5.47;76.89;99728.16;1757793;80;20196;-80
2022/02/23 00:36:32;;;;;;;;;;;;;;;5.34;77.25;99723.14;1748219;80;20925;-79
2022/02/23 00:38:57;;;;;;;;;;;;;;;5.43;77.24;99729.87;1752605;80;20204;-79
2022/02/23 00:41:23;;;;;;;;;;;;;;;5.37;77.45;99717.64;1753477;80;20449;-79
2022/02/23 00:43:48;;;;;;;;;;;;;;;5.36;77.52;99715.15;1758399;80;20500;-83
2022/02/23 00:46:14;;;;;;;;;;;;;;;5.40;77.39;99710.83;1754808;80;20136;-79
2022/02/23 00:48:40;;;;;;;;;;;;;;;5.38;77.43;99720.61;1749451;80;21117;-79
2022/02/23 00:51:05;;;;;;;;;;;;;;;5.34;77.73;99715.28;1755911;80;20308;-80
2022/02/23 00:53:31;;;;;;;;;;;;;;;5.42;77.74;99709.38;1754780;80;20187;-80
2022/02/23 00:55:57;;;;;;;;;;;;;;;5.37;78.09;99707.16;1755983;80;20159;-81
2022/02/23 00:58:22;;;;;;;;;;;;;;;5.55;77.65;99698.19;1761414;80;20203;-79
2022/02/23 01:00:48;;;;;;;;;;;;;;;5.47;77.62;99701.13;1756582;80;21072;-80
2022/02/23 01:03:13;;;;;;;;;;;;;;;5.55;77.74;99695.57;1755672;80;20143;-79
2022/02/23 01:05:40;;;;;;;;;;;;;;;5.65;77.43;99696.89;1756568;80;20259;-79
2022/02/23 01:08:06;;;;;;;;;;;;;;;5.72;77.13;99698.02;1759094;80;20162;-81
2022/02/23 01:10:32;;;;;;;;;;;;;;;5.62;77.22;99697.66;1758049;80;20202;-80
2022/02/23 01:12:57;;;;;;;;;;;;;;;5.54;77.58;99691.78;1757448;79;22589;-80
2022/02/23 01:15:23;;;;;;;;;;;;;;;5.47;77.80;99685.41;1763282;79;20144;-82
2022/02/23 01:17:48;;;;;;;;;;;;;;;5.59;77.42;99681.71;1755551;80;20159;-80
2022/02/23 01:20:14;;;;;;;;;;;;;;;5.31;78.36;99675.45;1755959;79;20145;-79
2022/02/23 01:22:39;;;;;;;;;;;;;;;5.43;78.03;99681.42;1758293;80;20471;-80
2022/02/23 01:25:06;;;;;;;;;;;;;;;5.42;78.21;99677.95;1757055;79;21816;-80
2022/02/23 01:27:31;;;;;;;;;;;;;;;5.38;78.35;99676.10;1758984;80;20491;-81
2022/02/23 01:29:58;;;;;;;;;;;;;;;5.47;78.08;99668.39;1757560;80;20139;-79
2022/02/23 01:32:24;;;;;;;;;;;;;;;5.49;78.00;99665.17;1760721;80;20196;-79
2022/02/23 01:34:50;;;;;;;;;;;;;;;5.53;77.79;99662.61;1758532;79;20247;-81
2022/02/23 01:37:16;;;;;;;;;;;;;;;5.55;77.93;99664.63;1753582;79;21948;-80
2022/02/23 01:39:42;;;;;;;;;;;;;;;5.44;78.38;99659.49;1759033;79;20167;-79
2022/02/23 01:42:08;;;;;;;;;;;;;;;5.47;78.32;99663.16;1760654;80;20229;-80
2022/02/23 01:44:33;;;;;;;;;;;;;;;5.31;78.62;99657.95;1762516;80;20116;-79
2022/02/23 01:46:59;;;;;;;;;;;;;;;5.40;78.62;99649.29;1761219;80;20129;-79
2022/02/23 01:49:24;;;;;;;;;;;;;;;5.52;78.29;99641.34;1755511;79;21160;-80
2022/02/23 01:51:50;;;;;;;;;;;;;;;5.49;78.25;99631.13;1758224;80;20143;-80
2022/02/23 01:54:16;;;;;;;;;;;;;;;5.51;78.21;99637.87;1757099;80;20214;-79
2022/02/23 01:56:41;;;;;;;;;;;;;;;5.63;78.23;99643.82;1761872;80;20104;-80
2022/02/23 01:59:07;;;;;;;;;;;;;;;5.69;77.97;99639.84;1757376;80;20159;-81
2022/02/23 02:01:33;;;;;;;;;;;;;;;5.73;77.53;99638.58;1761803;79;21078;-80
2022/02/23 02:03:58;;;;;;;;;;;;;;;5.82;77.16;99637.75;1759894;80;20200;-80
2022/02/23 02:06:24;;;;;;;;;;;;;;;5.62;77.63;99633.48;1757584;79;20175;-79
2022/02/23 02:08:49;;;;;;;;;;;;;;;5.63;77.86;99632.03;1750697;80;20124;-79
2022/02/23 02:11:15;;;;;;;;;;;;;;;5.46;78.26;99623.55;1756986;80;20218;-80
2022/02/23 02:13:41;;;;;;;;;;;;;;;5.72;77.54;99628.59;1762292;80;21164;-81
2022/02/23 02:16:06;;;;;;;;;;;;;;;5.87;77.30;99616.38;1747288;80;20144;-79
2022/02/23 02:18:32;;;;;;;;;;;;;;;5.81;76.95;99615.16;1761475;80;21149;-81
2022/02/23 02:20:58;;;;;;;;;;;;;;;5.90;77.10;99616.95;1753230;80;20160;-80
2022/02/23 02:23:23;;;;;;;;;;;;;;;5.91;76.93;99607.28;1737379;81;20206;-79
2022/02/23 02:25:49;;;;;;;;;;;;;;;6.02;76.65;99611.08;1737600;81;21208;-79
2022/02/23 02:28:14;;;;;;;;;;;;;;;6.05;76.61;99609.48;1732106;81;20502;-81
2022/02/23 02:30:40;;;;;;;;;;;;;;;6.11;76.36;99614.17;1734600;81;20507;-81
2022/02/23 02:33:06;;;;;;;;;;;;;;;6.13;75.92;99609.28;1736439;80;20171;-79
2022/02/23 02:35:36;;;;;;;;;;;;;;;6.06;76.16;99607.69;1743369;81;20530;-79
2022/02/23 02:37:59;;;;;;;;;;;;;;;6.18;75.43;99601.31;1740217;80;20120;-79
2022/02/23 02:40:24;;;;;;;;;;;;;;;6.09;75.22;99597.77;1740488;80;20195;-80
2022/02/23 02:42:50;;;;;;;;;;;;;;;5.75;75.70;99587.70;1744575;80;20153;-81
2022/02/23 02:45:15;;;;;;;;;;;;;;;6.06;75.64;99592.81;1736118;81;20130;-80
2022/02/23 02:47:41;;;;;;;;;;;;;;;5.93;75.55;99579.13;1736124;81;20227;-80
2022/02/23 02:50:07;;;;;;;;;;;;;;;5.87;75.77;99575.76;1744988;80;21157;-79
2022/02/23 02:52:33;;;;;;;;;;;;;;;6.04;75.49;99576.38;1737667;81;20165;-80
2022/02/23 02:54:58;;;;;;;;;;;;;;;6.04;75.16;99571.12;1739444;81;20193;-79
2022/02/23 02:57:24;;;;;;;;;;;;;;;6.02;75.13;99575.70;1737429;81;20550;-79
2022/02/23 02:59:49;;;;;;;;;;;;;;;5.97;75.27;99577.92;1740801;81;20169;-79
2022/02/23 03:02:15;;;;;;;;;;;;;;;6.00;75.15;99578.95;1739288;81;21190;-81
2022/02/23 03:04:40;;;;;;;;;;;;;;;5.88;75.37;99574.31;1740846;80;20610;-81
2022/02/23 03:07:06;;;;;;;;;;;;;;;5.78;75.48;99575.28;1741318;81;20161;-80
2022/02/23 03:09:31;;;;;;;;;;;;;;;5.85;75.39;99568.53;1736783;81;20145;-80
2022/02/23 03:11:57;;;;;;;;;;;;;;;5.93;75.32;99566.87;1741279;81;20483;-80
2022/02/23 03:14:23;;;;;;;;;;;;;;;5.75;75.52;99566.75;1733659;81;21358;-80
2022/02/23 03:16:48;;;;;;;;;;;;;;;5.88;75.38;99563.83;1735570;82;20583;-82
2022/02/23 03:19:14;;;;;;;;;;;;;;;5.81;75.32;99557.98;1756112;81;20174;-82
2022/02/23 03:21:40;;;;;;;;;;;;;;;5.92;75.06;99557.34;1748086;81;20181;-80
2022/02/23 03:24:06;;;;;;;;;;;;;;;5.96;74.78;99559.69;1753884;80;20274;-80
2022/02/23 03:26:31;;;;;;;;;;;;;;;5.78;75.25;99564.80;1748451;81;22086;-79
2022/02/23 03:28:57;;;;;;;;;;;;;;;5.89;75.06;99564.67;1740190;81;20150;-80
2022/02/23 03:31:22;;;;;;;;;;;;;;;6.08;74.71;99562.03;1749931;80;20237;-80
2022/02/23 03:33:48;;;;;;;;;;;;;;;6.00;74.58;99557.98;1756005;81;20604;-80
2022/02/23 03:36:14;;;;;;;;;;;;;;;6.02;74.60;99553.91;1745943;81;20152;-80
2022/02/23 03:38:40;;;;;;;;;;;;;;;6.05;74.58;99551.83;1741256;81;21072;-80
2022/02/23 03:41:06;;;;;;;;;;;;;;;5.94;74.68;99549.34;1738572;81;20175;-81
2022/02/23 03:43:32;;;;;;;;;;;;;;;6.09;74.23;99555.83;1741831;81;20238;-80
2022/02/23 03:45:57;;;;;;;;;;;;;;;5.92;74.36;99553.91;1751685;81;20205;-80
2022/02/23 03:48:23;;;;;;;;;;;;;;;6.04;74.23;99552.78;1744375;81;20131;-81
2022/02/23 03:50:49;;;;;;;;;;;;;;;6.10;74.09;99546.97;1743745;81;21161;-81
2022/02/23 03:53:14;;;;;;;;;;;;;;;6.19;73.94;99543.18;1745066;81;20835;-81
2022/02/23 03:55:41;;;;;;;;;;;;;;;6.10;73.55;99533.87;1745816;81;20176;-80
2022/02/23 03:58:10;;;;;;;;;;;;;;;6.09;73.48;99540.56;1744500;81;20124;-80
2022/02/23 04:00:36;;;;;;;;;;;;;;;6.05;73.72;99542.66;1751038;81;20178;-80
2022/02/23 04:03:02;;;;;;;;;;;;;;;6.21;72.94;99534.67;1748296;81;21153;-80
2022/02/23 04:05:27;;;;;;;;;;;;;;;6.31;72.87;99534.17;1749443;81;20124;-80
2022/02/23 04:07:53;;;;;;;;;;;;;;;6.46;72.30;99535.35;1750096;81;20856;-80
2022/02/23 04:10:20;;;;;;;;;;;;;;;6.35;72.40;99532.89;1749135;81;20169;-81
2022/02/23 04:12:47;;;;;;;;;;;;;;;6.41;72.22;99527.07;1745866;81;20689;-80
2022/02/23 04:15:13;;;;;;;;;;;;;;;6.56;71.67;99523.98;1747012;81;21147;-80
2022/02/23 04:17:39;;;;;;;;;;;;;;;6.29;72.27;99524.28;1742905;81;20146;-80
2022/02/23 04:20:05;;;;;;;;;;;;;;;6.36;72.57;99517.51;1747428;81;20154;-80
2022/02/23 04:22:31;;;;;;;;;;;;;;;6.36;72.80;99522.75;1749368;81;20620;-80
2022/02/23 04:24:57;;;;;;;;;;;;;;;6.40;72.06;99518.03;1749384;80;20199;-81
2022/02/23 04:27:23;;;;;;;;;;;;;;;6.18;73.15;99520.55;1747946;81;21177;-81
2022/02/23 04:29:48;;;;;;;;;;;;;;;6.14;73.55;99521.79;1745116;81;20217;-80
2022/02/23 04:32:14;;;;;;;;;;;;;;;6.22;73.66;99512.74;1745321;81;20181;-81
2022/02/23 04:34:39;;;;;;;;;;;;;;;6.02;74.17;99507.55;1745208;80;20468;-80
2022/02/23 04:37:07;;;;;;;;;;;;;;;6.28;73.76;99505.12;1754227;81;20140;-81
2022/02/23 04:39:32;;;;;;;;;;;;;;;5.94;74.75;99508.73;1748858;80;21100;-80
2022/02/23 04:41:58;;;;;;;;;;;;;;;6.14;74.24;99499.50;1752476;81;20136;-81
2022/02/23 04:44:23;;;;;;;;;;;;;;;6.13;74.15;99495.25;1757093;81;20126;-81
2022/02/23 04:46:49;;;;;;;;;;;;;;;6.16;74.33;99494.97;1746013;81;20940;-81
2022/02/23 04:49:14;;;;;;;;;;;;;;;6.24;74.23;99492.44;1743425;81;20273;-80
2022/02/23 04:51:40;;;;;;;;;;;;;;;6.01;74.46;99495.44;1744534;81;20970;-82
2022/02/23 04:54:06;;;;;;;;;;;;;;;5.77;75.95;99497.67;1743958;80;20298;-82
2022/02/23 04:56:31;;;;;;;;;;;;;;;5.78;75.77;99490.14;1744555;81;20202;-79
2022/02/23 04:58:57;;;;;;;;;;;;;;;6.02;75.84;99493.14;1749618;81;20134;-79
2022/02/23 05:01:23;;;;;;;;;;;;;;;5.98;76.06;99490.48;1744641;80;20227;-79
2022/02/23 05:03:49;;;;;;;;;;;;;;;5.99;76.55;99493.42;1742278;80;21158;-80
2022/02/23 05:06:14;;;;;;;;;;;;;;;6.15;76.39;99490.68;1749088;80;21196;-80
2022/02/23 05:08:40;;;;;;;;;;;;;;;5.89;77.61;99492.12;1750404;81;20179;-80
2022/02/23 05:11:06;;;;;;;;;;;;;;;5.95;78.11;99493.35;1744236;80;20124;-80
2022/02/23 05:13:32;;;;;;;;;;;;;;;6.08;77.99;99494.37;1740845;81;20188;-79
2022/02/23 05:15:59;;;;;;;;;;;;;;;5.97;78.90;99488.81;1747448;81;20915;-80
2022/02/23 05:18:27;;;;;;;;;;;;;;;5.84;80.11;99494.81;1729172;81;20144;-82
2022/02/23 05:20:53;;;;;;;;;;;;;;;5.91;79.97;99498.03;1739314;81;20491;-82
2022/02/23 05:23:18;;;;;;;;;;;;;;;5.95;80.35;99493.35;1737581;81;20124;-80
2022/02/23 05:25:44;;;;;;;;;;;;;;;5.80;81.98;99492.97;1733760;81;20923;-79
2022/02/23 05:28:10;;;;;;;;;;;;;;;5.87;81.62;99480.97;1754868;80;21858;-80
2022/02/23 05:30:35;;;;;;;;;;;;;;;5.97;81.80;99485.38;1758436;80;20159;-82
2022/02/23 05:33:01;;;;;;;;;;;;;;;5.55;83.77;99482.13;1756830;80;20141;-79
2022/02/23 05:35:26;;;;;;;;;;;;;;;5.62;84.36;99477.14;1757726;80;20453;-80
2022/02/23 05:37:52;;;;;;;;;;;;;;;5.45;84.99;99482.61;1756139;80;20194;-78
2022/02/23 05:40:18;;;;;;;;;;;;;;;5.66;85.17;99478.52;1761933;80;21099;-79
2022/02/23 05:42:44;;;;;;;;;;;;;;;5.55;85.11;99471.64;1767712;80;20226;-80
2022/02/23 05:45:09;;;;;;;;;;;;;;;5.60;85.42;99475.16;1749159;80;20129;-81
2022/02/23 05:47:35;;;;;;;;;;;;;;;5.83;84.92;99477.45;1729648;81;20137;-82
2022/02/23 05:50:00;;;;;;;;;;;;;;;6.00;84.19;99472.81;1748516;80;20179;-82
2022/02/23 05:52:26;;;;;;;;;;;;;;;5.89;84.66;99465.91;1739966;80;21162;-82
2022/02/23 05:54:52;;;;;;;;;;;;;;;5.93;84.52;99470.38;1744100;80;20166;-81
2022/02/23 05:57:18;;;;;;;;;;;;;;;6.07;84.23;99473.86;1740157;80;20164;-81
2022/02/23 05:59:44;;;;;;;;;;;;;;;5.98;84.73;99473.45;1748750;80;20235;-81
2022/02/23 06:02:10;;;;;;;;;;;;;;;5.88;85.23;99475.23;1752928;81;21219;-80
2022/02/23 06:04:36;;;;;;;;;;;;;;;5.88;85.41;99469.98;1753369;81;21974;-81
2022/02/23 06:07:05;;;;;;;;;;;;;;;5.68;86.34;99467.41;1750888;81;20251;-80
2022/02/23 06:09:34;;;;;;;;;;;;;;;6.02;85.42;99468.23;1752198;80;20988;-79
2022/02/23 06:12:00;;;;;;;;;;;;;;;6.11;84.97;99467.37;1751260;80;20206;-80
2022/02/23 06:14:26;;;;;;;;;;;;;;;6.01;85.43;99465.77;1745121;80;20206;-80
2022/02/23 06:16:51;;;;;;;;;;;;;;;6.02;85.51;99476.10;1749042;80;21036;-83
2022/02/23 06:19:17;;;;;;;;;;;;;;;6.05;86.14;99473.19;1750962;81;20819;-80
2022/02/23 06:21:42;;;;;;;;;;;;;;;5.90;87.03;99473.28;1749512;81;20259;-81
2022/02/23 06:24:08;;;;;;;;;;;;;;;5.84;88.08;99475.16;1749573;80;20415;-81
2022/02/23 06:26:34;;;;;;;;;;;;;;;5.91;87.69;99479.69;1746866;80;20251;-83
2022/02/23 06:28:59;;;;;;;;;;;;;;;5.99;87.71;99484.25;1741604;81;21109;-81
2022/02/23 06:31:25;;;;;;;;;;;;;;;5.69;89.40;99491.33;1748474;81;20188;-80
2022/02/23 06:33:51;;;;;;;;;;;;;;;5.75;89.95;99490.77;1750378;81;20442;-84
2022/02/23 06:36:16;;;;;;;;;;;;;;;5.50;92.29;99493.97;1742089;81;21117;-77
2022/02/23 06:38:42;;;;;;;;;;;;;;;5.68;92.20;99494.91;1743370;81;20271;-82
2022/02/23 06:41:10;;;;;;;;;;;;;;;5.47;94.00;99497.72;1745551;80;21169;-81
2022/02/23 06:43:35;;;;;;;;;;;;;;;5.64;94.22;99496.18;1750026;81;20302;-81
2022/02/23 06:46:01;;;;;;;;;;;;;;;5.38;96.58;99503.29;1749354;81;20259;-81
2022/02/23 06:48:28;;;;;;;;;;;;;;;5.38;97.18;99511.15;1746063;80;20126;-81
2022/02/23 06:50:54;;;;;;;;;;;;;;;5.53;97.00;99514.64;1748288;80;20129;-80
2022/02/23 06:53:20;;;;;;;;;;;;;;;5.61;97.36;99520.03;1748140;81;21160;-80
2022/02/23 06:55:45;;;;;;;;;;;;;;;5.74;97.36;99523.17;1746562;80;20154;-81
2022/02/23 06:58:11;;;;;;;;;;;;;;;5.64;98.46;99523.69;1748347;81;20680;-79
2022/02/23 07:00:37;;;;;;;;;;;;;;;5.79;97.58;99536.34;1747214;81;20162;-79
2022/02/23 07:03:03;;;;;;;;;;;;;;;5.84;97.94;99556.39;1747577;81;20221;-79
2022/02/23 07:05:29;;;;;;;;;;;;;;;5.70;98.83;99540.16;1750038;80;21095;-79
2022/02/23 07:07:55;;;;;;;;;;;;;;;5.98;97.66;99559.93;1749128;81;20276;-81
2022/02/23 07:10:26;;;;;;;;;;;;;;;6.16;97.13;99554.77;1740409;80;20484;-79
2022/02/23 07:12:52;;;;;;;;;;;;;;;6.11;97.18;99563.55;1741012;81;20165;-82
2022/02/23 07:15:18;;;;;;;;;;;;;;;6.32;96.87;99560.70;1747037;81;20172;-80
2022/02/23 07:17:44;;;;;;;;;;;;;;;6.36;96.50;99564.71;1747283;81;22006;-79
2022/02/23 07:20:09;;;;;;;;;;;;;;;5.90;98.63;99575.02;1742960;81;20242;-78
2022/02/23 07:22:36;;;;;;;;;;;;;;;6.25;97.91;99583.25;1745180;80;20232;-81
2022/02/23 07:25:03;;;;;;;;;;;;;;;6.32;97.66;99592.17;1745324;81;20201;-78
2022/02/23 07:27:29;;;;;;;;;;;;;;;6.78;95.30;99579.99;1743031;81;20209;-78
2022/02/23 07:29:54;;;;;;;;;;;;;;;6.74;94.79;99599.64;1743660;81;21162;-79
2022/02/23 07:32:22;;;;;;;;;;;;;;;6.90;94.67;99591.59;1742050;81;20478;-80
2022/02/23 07:34:49;;;;;;;;;;;;;;;6.82;95.08;99603.67;1739560;81;20177;-79
2022/02/23 07:37:15;;;;;;;;;;;;;;;6.54;96.57;99625.13;1775359;79;20162;-78
2022/02/23 07:39:41;;;;;;;;;;;;;;;6.40;97.02;99618.53;1732263;82;20205;-81
2022/02/23 07:42:07;;;;;;;;;;;;;;;6.60;96.24;99632.89;1713124;81;21196;-78
2022/02/23 07:44:33;;;;;;;;;;;;;;;6.49;96.26;99622.08;1750450;80;20692;-78
2022/02/23 07:46:59;;;;;;;;;;;;;;;6.66;95.12;99638.88;1746703;81;20704;-80
2022/02/23 07:49:24;;;;;;;;;;;;;;;6.41;96.34;99625.41;1751013;81;20240;-79
2022/02/23 07:51:50;;;;;;;;;;;;;;;6.59;95.81;99643.06;1744293;80;20597;-78
2022/02/23 07:54:16;;;;;;;;;;;;;;;6.61;96.06;99655.05;1746738;81;21985;-79
2022/02/23 07:56:41;;;;;;;;;;;;;;;6.67;95.41;99661.53;1745574;80;20474;-79
2022/02/23 07:59:07;;;;;;;;;;;;;;;6.45;96.73;99662.70;1748385;80;20214;-79
2022/02/23 08:01:34;;;;;;;;;;;;;;;6.61;94.75;99688.34;1765130;80;20150;-80
2022/02/23 08:04:00;;;;;;;;;;;;;;;6.74;94.24;99668.34;1743675;81;20146;-80
2022/02/23 08:06:26;;;;;;;;;;;;;;;6.82;93.99;99683.72;1743771;81;21080;-79
2022/02/23 08:08:54;;;;;;;;;;;;;;;6.71;93.92;99700.95;1746052;81;20642;-79
2022/02/23 08:11:19;;;;;;;;;;;;;;;6.77;93.50;99691.17;1739298;81;20134;-78
2022/02/23 08:13:45;;;;;;;;;;;;;;;6.90;92.60;99690.02;1749383;81;20399;-82
2022/02/23 08:21:40;;;;;;;;;;;;;;;6.93;90.33;99715.98;1726824;81;20312;-82
2022/02/23 08:24:06;;;;;;;;;;;;;;;6.81;89.16;99720.60;1725004;81;20201;-82
2022/02/23 08:26:32;;;;;;;;;;;;;;;7.21;88.06;99708.14;1732458;81;20213;-80
2022/02/23 08:28:57;;;;;;;;;;;;;;;6.99;88.03;99742.52;1736493;81;20165;-81
2022/02/23 08:31:23;;;;;;;;;;;;;;;7.03;88.33;99729.10;1732908;81;20995;-78
2022/02/23 08:33:48;;;;;;;;;;;;;;;7.22;87.50;99724.25;1723945;81;21250;-79
2022/02/23 08:36:14;;;;;;;;;;;;;;;7.04;86.27;99744.71;1728304;81;20128;-81
2022/02/23 08:38:41;;;;;;;;;;;;;;;7.27;84.91;99736.45;1725554;81;20172;-81
2022/02/23 08:41:07;;;;;;;;;;;;;;;7.09;85.70;99733.28;1726793;81;20234;-81
2022/02/23 08:43:32;;;;;;;;;;;;;;;7.31;83.56;99736.52;1729109;81;21957;-82
2022/02/23 08:45:58;;;;;;;;;;;;;;;7.45;83.55;99734.71;1731632;81;20143;-78
2022/02/23 08:48:26;;;;;;;;;;;;;;;7.49;83.39;99758.41;1727423;81;20553;-79
2022/02/23 08:50:51;;;;;;;;;;;;;;;7.51;82.03;99773.53;1729526;81;20170;-78
2022/02/23 08:53:17;;;;;;;;;;;;;;;7.42;81.52;99790.17;1730319;81;20150;-78
2022/02/23 08:55:42;;;;;;;;;;;;;;;7.61;80.95;99749.02;1730022;81;21129;-80
2022/02/23 08:58:11;;;;;;;;;;;;;;;7.71;80.80;99768.19;1725731;81;20340;-77
2022/02/23 09:00:35;;;;;;;;;;;;;;;7.80;80.60;99771.25;1734469;81;20144;-78
2022/02/23 09:03:01;;;;;;;;;;;;;;;7.52;81.43;99772.58;1734363;81;20155;-78
2022/02/23 09:05:26;;;;;;;;;;;;;;;7.72;81.27;99796.11;1730006;81;20492;-80
2022/02/23 09:07:53;;;;;;;;;;;;;;;7.58;80.98;99780.84;1732145;81;21170;-80
2022/02/23 09:10:19;;;;;;;;;;;;;;;7.43;80.90;99799.72;1725526;81;21060;-78
2022/02/23 09:12:44;;;;;;;;;;;;;;;7.29;81.20;99785.75;1726275;81;20265;-79
2022/02/23 09:15:12;;;;;;;;;;;;;;;7.62;80.37;99792.72;1738513;80;21449;-79
2022/02/23 09:17:37;;;;;;;;;;;;;;;7.50;80.92;99838.05;1742882;81;20241;-78
2022/02/23 09:20:04;;;;;;;;;;;;;;;7.36;82.34;99780.23;1751512;81;21142;-78
2022/02/23 09:22:29;;;;;;;;;;;;;;;7.15;83.24;99792.28;1748185;81;20663;-78
2022/02/23 09:24:55;;;;;;;;;;;;;;;7.58;82.24;99791.34;1744385;81;20154;-78
2022/02/23 09:27:21;;;;;;;;;;;;;;;7.47;82.06;99810.29;1748439;81;20119;-78
2022/02/23 09:29:46;;;;;;;;;;;;;;;7.25;82.38;99788.30;1752385;81;20140;-78
2022/02/23 09:32:12;;;;;;;;;;;;;;;7.32;81.01;99808.60;1749957;81;21031;-79
2022/02/23 09:34:37;;;;;;;;;;;;;;;7.63;79.33;99796.98;1752879;81;20208;-78
2022/02/23 09:37:03;;;;;;;;;;;;;;;7.55;79.93;99793.30;1747222;81;20788;-78
2022/02/23 09:39:28;;;;;;;;;;;;;;;7.79;79.18;99825.29;1746142;81;20527;-78
2022/02/23 09:41:56;;;;;;;;;;;;;;;7.64;79.74;99809.98;1748861;81;20184;-78
2022/02/23 09:44:23;;;;;;;;;;;;;;;7.72;78.39;99809.25;1747992;81;21268;-78
2022/02/23 09:46:48;;;;;;;;;;;;;;;7.74;77.80;99821.78;1740450;81;20219;-78
2022/02/23 09:49:14;;;;;;;;;;;;;;;7.57;78.36;99836.98;1744869;81;20140;-80
2022/02/23 09:51:40;;;;;;;;;;;;;;;7.82;77.78;99857.36;1742321;81;21389;-79
2022/02/23 09:54:05;;;;;;;;;;;;;;;8.05;76.72;99842.02;1745797;81;20124;-79
2022/02/23 09:56:32;;;;;;;;;;;;;;;7.91;76.02;99820.98;1749028;81;21862;-78
2022/02/23 09:59:01;;;;;;;;;;;;;;;8.06;76.37;99816.54;1741920;81;21160;-78
2022/02/23 10:01:27;;;;;;;;;;;;;;;8.14;75.63;99825.85;1746381;81;20593;-78
2022/02/23 10:03:53;;;;;;;;;;;;;;;8.18;75.40;99821.92;1743611;81;20174;-80
2022/02/23 10:06:31;;;;;;;;;;;;;;;8.13;74.81;99843.91;1744245;81;20558;-79
2022/02/23 10:09:05;;;;;;;;;;;;;;;7.86;74.39;99841.64;1743474;81;21361;-77
2022/02/23 10:11:31;;;;;;;;;;;;;;;8.15;74.22;99868.25;1745565;81;20182;-77
2022/02/23 10:13:56;;;;;;;;;;;;;;;7.79;75.57;99844.50;1749095;81;20135;-78
2022/02/23 10:16:29;;;;;;;;;;;;;;;7.70;75.61;99853.26;1729543;81;20501;-77
2022/02/23 10:19:09;;;;;;;;;;;;;;;8.02;75.35;99861.22;1714173;82;20454;-78
2022/02/23 10:21:57;;;;;;;;;;;;;;;8.00;75.13;99911.79;1678873;83;21166;-78
2022/02/23 10:24:29;;;;;;;;;;;;;;;8.15;75.71;99852.97;1712088;83;20145;-78
2022/02/23 10:27:06;;;;;;;;;;;;;;;7.51;78.54;99848.42;1712072;83;20228;-78
2022/02/23 10:29:34;;;;;;;;;;;;;;;7.59;78.58;99898.12;1714066;83;20216;-78
2022/02/23 10:32:01;;;;;;;;;;;;;;;7.79;77.62;99852.39;1712290;83;20185;-79
2022/02/23 10:34:26;;;;;;;;;;;;;;;7.44;78.93;99878.88;1714834;83;20992;-79
2022/02/23 10:37:03;;;;;;;;;;;;;;;7.48;80.89;99893.37;1713954;82;20220;-78
2022/02/23 10:39:44;;;;;;;;;;;;;;;7.56;81.99;99899.23;1685404;83;34131;-78
2022/02/23 10:42:12;;;;;;;;;;;;;;;7.49;82.72;99891.09;1711975;83;20506;-78
2022/02/23 10:44:41;;;;;;;;;;;;;;;7.45;83.71;99876.58;1715168;83;20711;-79
2022/02/23 10:47:07;;;;;;;;;;;;;;;7.42;82.19;99892.63;1712791;83;21074;-78
2022/02/23 10:49:33;;;;;;;;;;;;;;;7.63;82.37;99873.20;1712224;83;20210;-77
2022/02/23 10:52:06;;;;;;;;;;;;;;;7.61;82.00;99869.89;1713400;83;20158;-78
2022/02/23 10:54:27;;;;;;;;;;;;;;;7.77;80.43;99880.63;1714076;82;20120;-77
2022/02/23 10:56:53;;;;;;;;;;;;;;;7.67;79.83;99874.08;1710888;82;20153;-77
2022/02/23 10:59:19;;;;;;;;;;;;;;;7.75;79.77;99866.78;1709944;82;21006;-77
2022/02/23 11:01:49;;;;;;;;;;;;;;;7.74;79.06;99874.34;1708747;82;20218;-78
2022/02/23 11:04:16;;;;;;;;;;;;;;;7.83;78.23;99886.63;1712421;83;20481;-79
2022/02/23 11:06:42;;;;;;;;;;;;;;;7.67;77.17;99894.28;1712197;83;20203;-77
2022/02/23 11:09:08;;;;;;;;;;;;;;;7.82;75.94;99909.12;1713324;83;20113;-77
2022/02/23 11:11:34;;;;;;;;;;;;;;;8.06;75.83;99919.09;1708699;83;22065;-77
2022/02/23 11:14:00;;;;;;;;;;;;;;;8.27;73.85;99912.30;1710464;83;20191;-77
2022/02/23 11:16:26;;;;;;;;;;;;;;;8.40;73.21;99882.98;1725744;81;20272;-78
2022/02/23 11:18:52;;;;;;;;;;;;;;;8.26;73.64;99904.90;1745011;81;20186;-77
2022/02/23 11:21:19;;;;;;;;;;;;;;;8.45;73.99;99911.02;1748521;81;20242;-77
2022/02/23 11:23:47;;;;;;;;;;;;;;;8.42;73.88;99912.59;1742188;81;21158;-77
2022/02/23 11:26:17;;;;;;;;;;;;;;;8.34;74.16;99905.94;1743608;81;20154;-79
2022/02/23 11:28:59;;;;;;;;;;;;;;;8.47;73.22;99891.98;1744956;81;20177;-77
2022/02/23 11:31:24;;;;;;;;;;;;;;;8.38;73.33;99903.37;1742759;81;20134;-76
2022/02/23 11:33:53;;;;;;;;;;;;;;;8.15;72.92;99926.12;1740329;81;20178;-79
2022/02/23 11:36:21;;;;;;;;;;;;;;;8.40;72.02;99926.41;1749495;81;21257;-80
2022/02/23 11:38:51;;;;;;;;;;;;;;;8.24;72.69;99927.05;1749385;81;20106;-78
2022/02/23 11:41:28;;;;;;;;;;;;;;;8.17;73.27;99924.66;1747751;81;20531;-79
2022/02/23 11:44:04;;;;;;;;;;;;;;;8.10;73.98;99912.58;1748268;81;20140;-77
2022/02/23 11:46:29;;;;;;;;;;;;;;;8.04;74.11;99938.15;1743290;81;20184;-76
2022/02/23 11:48:56;;;;;;;;;;;;;;;8.20;74.02;99943.62;1750772;81;21095;-77
2022/02/23 11:51:25;;;;;;;;;;;;;;;8.16;73.58;99927.78;1747339;81;20107;-77
2022/02/23 11:53:51;;;;;;;;;;;;;;;8.00;73.75;99988.89;1752133;81;20152;-77
2022/02/23 11:56:17;;;;;;;;;;;;;;;7.95;74.03;99945.59;1749965;81;20331;-77
2022/02/23 11:58:45;;;;;;;;;;;;;;;8.03;74.69;99954.89;1747930;81;20212;-78
2022/02/23 12:01:11;;;;;;;;;;;;;;;7.91;74.99;99932.73;1746881;81;21005;-77
2022/02/23 12:03:37;;;;;;;;;;;;;;;8.01;75.17;99941.06;1740025;81;21000;-77
2022/02/23 12:06:06;;;;;;;;;;;;;;;8.06;74.76;99943.62;1749960;81;20116;-79
2022/02/23 12:08:42;;;;;;;;;;;;;;;8.09;74.51;99938.06;1745218;81;20188;-77
2022/02/23 12:11:16;;;;;;;;;;;;;;;8.01;73.62;99958.16;1742059;81;20152;-77
2022/02/23 12:13:49;;;;;;;;;;;;;;;8.03;73.43;100000.91;1741540;81;20682;-77
2022/02/23 12:16:45;;;;;;;;;;;;;;;7.94;75.42;99970.22;1738310;81;20889;-78
2022/02/23 12:19:06;;;;;;;;;;;;;;;7.91;74.97;99968.72;1747332;81;20610;-79
2022/02/23 12:21:41;;;;;;;;;;;;;;;8.12;75.84;99981.64;1749639;81;20185;-77
2022/02/23 12:24:07;;;;;;;;;;;;;;;7.51;80.79;99985.05;1736740;81;20266;-78
2022/02/23 12:26:36;;;;;;;;;;;;;;;7.18;82.99;100033.60;1747542;81;21146;-79
2022/02/23 12:29:01;;;;;;;;;;;;;;;7.13;84.47;100026.59;1747144;81;20112;-80
2022/02/23 12:31:30;;;;;;;;;;;;;;;6.97;83.46;100041.08;1746898;81;20139;-79
2022/02/23 12:34:01;;;;;;;;;;;;;;;7.07;83.75;100014.86;1741282;80;20525;-81
2022/02/23 12:36:33;;;;;;;;;;;;;;;7.11;84.27;100015.41;1745273;81;20174;-78
2022/02/23 12:38:59;;;;;;;;;;;;;;;7.21;85.78;99997.02;1722628;81;21168;-77
2022/02/23 12:41:30;;;;;;;;;;;;;;;7.02;85.72;100014.42;1750819;80;20326;-78
2022/02/23 12:43:59;;;;;;;;;;;;;;;7.28;85.56;100007.33;1744573;81;20191;-78
2022/02/23 12:46:26;;;;;;;;;;;;;;;7.21;86.78;100010.16;1743889;81;20187;-79
2022/02/23 12:48:55;;;;;;;;;;;;;;;7.21;85.30;99999.65;1748635;81;20535;-78
2022/02/23 12:51:22;;;;;;;;;;;;;;;7.45;84.51;99997.92;1752996;81;21122;-79
2022/02/23 12:53:47;;;;;;;;;;;;;;;7.57;84.35;99999.90;1740969;81;20171;-80
2022/02/23 12:56:23;;;;;;;;;;;;;;;7.55;82.52;99991.69;1744291;81;20463;-79
2022/02/23 12:58:54;;;;;;;;;;;;;;;7.46;82.14;100011.42;1750272;80;20198;-79